sensor_id;sensor_type;location;lat;lon;timestamp;pressure;altitude;pressure_sealevel;temperature;humidity
71145;BME280;58812;47.698;17.726;2023-04-26T00:01:00;99786.50;;;7.04;90.56
71145;BME280;58812;47.698;17.726;2023-04-26T00:03:29;99791.41;;;6.99;90.67
71145;BME280;58812;47.698;17.726;2023-04-26T00:05:54;99793.53;;;7.05;88.91
71145;BME280;58812;47.698;17.726;2023-04-26T00:08:20;99800.25;;;7.09;88.22
71145;BME280;58812;47.698;17.726;2023-04-26T00:10:45;99787.69;;;7.21;85.63
71145;BME280;58812;47.698;17.726;2023-04-26T00:13:10;99793.59;;;7.25;84.69
71145;BME280;58812;47.698;17.726;2023-04-26T00:15:36;99793.84;;;7.21;84.74
71145;BME280;58812;47.698;17.726;2023-04-26T00:18:02;99789.25;;;7.23;84.33
71145;BME280;58812;47.698;17.726;2023-04-26T00:20:27;99802.81;;;7.20;84.31
71145;BME280;58812;47.698;17.726;2023-04-26T00:22:53;99806.19;;;7.22;83.59
71145;BME280;58812;47.698;17.726;2023-04-26T00:25:18;99803.09;;;7.17;83.87
71145;BME280;58812;47.698;17.726;2023-04-26T00:27:44;99792.03;;;7.12;83.43
71145;BME280;58812;47.698;17.726;2023-04-26T00:30:10;99800.00;;;7.12;83.55
71145;BME280;58812;47.698;17.726;2023-04-26T00:32:35;99800.25;;;7.09;83.27
71145;BME280;58812;47.698;17.726;2023-04-26T00:35:04;99798.00;;;7.05;83.60
71145;BME280;58812;47.698;17.726;2023-04-26T00:37:30;99797.44;;;7.01;83.59
71145;BME280;58812;47.698;17.726;2023-04-26T00:39:55;99801.94;;;7.01;83.43
71145;BME280;58812;47.698;17.726;2023-04-26T00:42:21;99803.31;;;6.95;83.82
71145;BME280;58812;47.698;17.726;2023-04-26T00:44:47;99814.22;;;6.92;83.87
71145;BME280;58812;47.698;17.726;2023-04-26T00:47:14;99810.84;;;6.90;83.68
71145;BME280;58812;47.698;17.726;2023-04-26T00:49:39;99821.22;;;6.93;83.70
71145;BME280;58812;47.698;17.726;2023-04-26T00:52:05;99822.72;;;6.86;83.93
71145;BME280;58812;47.698;17.726;2023-04-26T00:54:31;99814.75;;;6.86;83.74
71145;BME280;58812;47.698;17.726;2023-04-26T00:56:57;99813.06;;;6.85;83.59
71145;BME280;58812;47.698;17.726;2023-04-26T00:59:23;99817.69;;;6.83;83.79
71145;BME280;58812;47.698;17.726;2023-04-26T01:01:48;99817.81;;;6.81;83.57
71145;BME280;58812;47.698;17.726;2023-04-26T01:04:14;99818.63;;;6.82;83.19
71145;BME280;58812;47.698;17.726;2023-04-26T01:06:39;99824.38;;;6.77;83.60
71145;BME280;58812;47.698;17.726;2023-04-26T01:09:05;99831.78;;;6.74;83.37
71145;BME280;58812;47.698;17.726;2023-04-26T01:11:37;99830.94;;;6.73;83.24
71145;BME280;58812;47.698;17.726;2023-04-26T01:14:03;99820.56;;;6.70;83.52
71145;BME280;58812;47.698;17.726;2023-04-26T01:16:29;99825.03;;;6.69;83.31
71145;BME280;58812;47.698;17.726;2023-04-26T01:18:55;99820.69;;;6.68;83.46
71145;BME280;58812;47.698;17.726;2023-04-26T01:21:22;99826.69;;;6.61;83.91
71145;BME280;58812;47.698;17.726;2023-04-26T01:23:49;99838.69;;;6.55;84.18
71145;BME280;58812;47.698;17.726;2023-04-26T01:26:14;99838.22;;;6.50;84.66
71145;BME280;58812;47.698;17.726;2023-04-26T01:28:40;99840.87;;;6.50;84.17
71145;BME280;58812;47.698;17.726;2023-04-26T01:31:06;99844.78;;;6.46;84.82
71145;BME280;58812;47.698;17.726;2023-04-26T01:33:31;99832.72;;;6.42;84.84
71145;BME280;58812;47.698;17.726;2023-04-26T01:35:57;99834.66;;;6.40;84.92
71145;BME280;58812;47.698;17.726;2023-04-26T01:38:22;99850.88;;;6.37;85.31
71145;BME280;58812;47.698;17.726;2023-04-26T01:40:48;99847.00;;;6.41;84.80
71145;BME280;58812;47.698;17.726;2023-04-26T01:43:13;99843.88;;;6.36;85.08
71145;BME280;58812;47.698;17.726;2023-04-26T01:45:39;99852.56;;;6.38;84.73
71145;BME280;58812;47.698;17.726;2023-04-26T01:48:06;99859.31;;;6.42;84.16
71145;BME280;58812;47.698;17.726;2023-04-26T01:50:31;99860.81;;;6.35;84.91
71145;BME280;58812;47.698;17.726;2023-04-26T01:52:57;99862.75;;;6.33;84.78
71145;BME280;58812;47.698;17.726;2023-04-26T01:55:22;99879.22;;;6.27;85.16
71145;BME280;58812;47.698;17.726;2023-04-26T01:57:48;99870.41;;;6.26;85.22
71145;BME280;58812;47.698;17.726;2023-04-26T02:00:13;99876.81;;;6.24;85.42
71145;BME280;58812;47.698;17.726;2023-04-26T02:02:39;99872.25;;;6.14;85.83
71145;BME280;58812;47.698;17.726;2023-04-26T02:05:05;99879.03;;;6.19;85.71
71145;BME280;58812;47.698;17.726;2023-04-26T02:07:30;99874.47;;;6.09;86.35
71145;BME280;58812;47.698;17.726;2023-04-26T02:09:56;99880.94;;;6.16;85.93
71145;BME280;58812;47.698;17.726;2023-04-26T02:12:21;99879.66;;;6.11;86.33
71145;BME280;58812;47.698;17.726;2023-04-26T02:14:47;99885.34;;;6.06;86.54
71145;BME280;58812;47.698;17.726;2023-04-26T02:17:12;99889.69;;;6.07;86.74
71145;BME280;58812;47.698;17.726;2023-04-26T02:19:39;99887.16;;;6.06;86.92
71145;BME280;58812;47.698;17.726;2023-04-26T02:22:04;99892.03;;;6.01;86.91
71145;BME280;58812;47.698;17.726;2023-04-26T02:24:30;99891.19;;;6.00;87.00
71145;BME280;58812;47.698;17.726;2023-04-26T02:26:56;99886.09;;;5.97;87.21
71145;BME280;58812;47.698;17.726;2023-04-26T02:29:25;99892.66;;;5.93;87.32
71145;BME280;58812;47.698;17.726;2023-04-26T02:31:50;99885.63;;;5.92;87.19
71145;BME280;58812;47.698;17.726;2023-04-26T02:34:16;99898.31;;;5.88;87.43
71145;BME280;58812;47.698;17.726;2023-04-26T02:36:41;99892.16;;;5.88;87.27
71145;BME280;58812;47.698;17.726;2023-04-26T02:39:07;99889.25;;;5.91;87.05
71145;BME280;58812;47.698;17.726;2023-04-26T02:41:32;99878.13;;;5.86;86.92
71145;BME280;58812;47.698;17.726;2023-04-26T02:43:58;99879.84;;;5.87;87.20
71145;BME280;58812;47.698;17.726;2023-04-26T02:46:24;99884.28;;;5.86;86.76
71145;BME280;58812;47.698;17.726;2023-04-26T02:48:49;99876.31;;;5.86;86.68
71145;BME280;58812;47.698;17.726;2023-04-26T02:51:15;99876.94;;;5.90;86.34
71145;BME280;58812;47.698;17.726;2023-04-26T02:53:40;99879.84;;;5.87;86.52
71145;BME280;58812;47.698;17.726;2023-04-26T02:56:06;99874.78;;;5.84;86.24
71145;BME280;58812;47.698;17.726;2023-04-26T02:58:31;99889.88;;;5.83;86.24
71145;BME280;58812;47.698;17.726;2023-04-26T03:00:57;99888.19;;;5.82;85.96
71145;BME280;58812;47.698;17.726;2023-04-26T03:03:24;99887.34;;;5.82;85.75
71145;BME280;58812;47.698;17.726;2023-04-26T03:05:49;99889.03;;;5.83;85.41
71145;BME280;58812;47.698;17.726;2023-04-26T03:08:15;99892.66;;;5.82;85.44
71145;BME280;58812;47.698;17.726;2023-04-26T03:10:40;99895.41;;;5.80;85.29
71145;BME280;58812;47.698;17.726;2023-04-26T03:13:06;99898.22;;;5.79;85.43
71145;BME280;58812;47.698;17.726;2023-04-26T03:15:31;99909.09;;;5.76;85.23
71145;BME280;58812;47.698;17.726;2023-04-26T03:17:57;99898.22;;;5.79;85.08
71145;BME280;58812;47.698;17.726;2023-04-26T03:20:23;99917.78;;;5.78;85.12
71145;BME280;58812;47.698;17.726;2023-04-26T03:22:49;99918.28;;;5.72;85.42
71145;BME280;58812;47.698;17.726;2023-04-26T03:25:15;99924.66;;;5.69;85.78
71145;BME280;58812;47.698;17.726;2023-04-26T03:27:40;99923.59;;;5.72;85.63
71145;BME280;58812;47.698;17.726;2023-04-26T03:30:06;99920.31;;;5.68;86.01
71145;BME280;58812;47.698;17.726;2023-04-26T03:32:32;99915.13;;;5.67;85.78
71145;BME280;58812;47.698;17.726;2023-04-26T03:34:58;99931.78;;;5.69;86.12
71145;BME280;58812;47.698;17.726;2023-04-26T03:37:23;99928.06;;;5.71;85.72
71145;BME280;58812;47.698;17.726;2023-04-26T03:39:48;99928.19;;;5.70;85.95
71145;BME280;58812;47.698;17.726;2023-04-26T03:42:16;99930.84;;;5.70;86.03
71145;BME280;58812;47.698;17.726;2023-04-26T03:44:42;99939.16;;;5.65;86.05
71145;BME280;58812;47.698;17.726;2023-04-26T03:47:07;99941.34;;;5.60;86.38
71145;BME280;58812;47.698;17.726;2023-04-26T03:49:33;99950.63;;;5.66;85.79
71145;BME280;58812;47.698;17.726;2023-04-26T03:51:58;99951.97;;;5.60;86.11
71145;BME280;58812;47.698;17.726;2023-04-26T03:54:24;99950.16;;;5.60;86.16
71145;BME280;58812;47.698;17.726;2023-04-26T03:56:49;99959.09;;;5.59;86.28
71145;BME280;58812;47.698;17.726;2023-04-26T03:59:15;99933.03;;;5.53;85.92
71145;BME280;58812;47.698;17.726;2023-04-26T04:01:40;99958.13;;;5.60;86.05
71145;BME280;58812;47.698;17.726;2023-04-26T04:04:06;99965.38;;;5.58;86.35
71145;BME280;58812;47.698;17.726;2023-04-26T04:06:31;99968.75;;;5.60;85.96
71145;BME280;58812;47.698;17.726;2023-04-26T04:08:57;99972.00;;;5.75;85.37
71145;BME280;58812;47.698;17.726;2023-04-26T04:11:22;99972.22;;;5.72;85.46
71145;BME280;58812;47.698;17.726;2023-04-26T04:13:48;99978.72;;;5.79;85.14
71145;BME280;58812;47.698;17.726;2023-04-26T04:16:13;99983.94;;;5.92;84.43
71145;BME280;58812;47.698;17.726;2023-04-26T04:18:39;99987.91;;;5.98;84.25
71145;BME280;58812;47.698;17.726;2023-04-26T04:21:04;99987.75;;;6.10;83.41
71145;BME280;58812;47.698;17.726;2023-04-26T04:23:29;99988.22;;;6.15;82.73
71145;BME280;58812;47.698;17.726;2023-04-26T04:25:55;99992.94;;;6.23;81.86
71145;BME280;58812;47.698;17.726;2023-04-26T04:28:20;99987.19;;;6.39;81.51
71145;BME280;58812;47.698;17.726;2023-04-26T04:30:47;99996.28;;;6.57;80.77
71145;BME280;58812;47.698;17.726;2023-04-26T04:33:12;99990.53;;;6.52;79.73
71145;BME280;58812;47.698;17.726;2023-04-26T04:35:40;100004.22;;;6.68;79.30
71145;BME280;58812;47.698;17.726;2023-04-26T04:38:05;99996.97;;;6.71;78.17
71145;BME280;58812;47.698;17.726;2023-04-26T04:40:31;99997.62;;;6.84;77.62
71145;BME280;58812;47.698;17.726;2023-04-26T04:42:56;100000.81;;;6.78;76.89
71145;BME280;58812;47.698;17.726;2023-04-26T04:45:22;99989.31;;;6.98;75.49
71145;BME280;58812;47.698;17.726;2023-04-26T04:47:47;100008.84;;;7.08;74.82
71145;BME280;58812;47.698;17.726;2023-04-26T04:50:13;100001.47;;;7.12;74.45
71145;BME280;58812;47.698;17.726;2023-04-26T04:52:39;100004.84;;;7.44;73.51
71145;BME280;58812;47.698;17.726;2023-04-26T04:55:05;100004.72;;;7.46;72.24
71145;BME280;58812;47.698;17.726;2023-04-26T04:57:30;100010.00;;;7.36;71.95
71145;BME280;58812;47.698;17.726;2023-04-26T04:59:56;100023.66;;;7.22;72.26
71145;BME280;58812;47.698;17.726;2023-04-26T05:02:22;100024.13;;;7.58;70.79
71145;BME280;58812;47.698;17.726;2023-04-26T05:04:47;100037.84;;;7.53;70.69
71145;BME280;58812;47.698;17.726;2023-04-26T05:07:13;100027.06;;;7.34;70.13
71145;BME280;58812;47.698;17.726;2023-04-26T05:09:40;100045.53;;;7.77;69.79
71145;BME280;58812;47.698;17.726;2023-04-26T05:12:06;100047.97;;;7.59;69.25
71145;BME280;58812;47.698;17.726;2023-04-26T05:14:31;100042.62;;;7.90;67.97
71145;BME280;58812;47.698;17.726;2023-04-26T05:16:57;100048.72;;;8.01;67.21
71145;BME280;58812;47.698;17.726;2023-04-26T05:19:22;100048.47;;;8.14;66.75
71145;BME280;58812;47.698;17.726;2023-04-26T05:21:47;100053.22;;;8.11;65.85
71145;BME280;58812;47.698;17.726;2023-04-26T05:24:13;100046.94;;;8.21;65.18
71145;BME280;58812;47.698;17.726;2023-04-26T05:26:38;100048.06;;;7.88;65.45
71145;BME280;58812;47.698;17.726;2023-04-26T05:29:04;100042.84;;;8.17;64.70
71145;BME280;58812;47.698;17.726;2023-04-26T05:31:30;100051.38;;;8.61;63.78
71145;BME280;58812;47.698;17.726;2023-04-26T05:33:55;100044.63;;;9.15;62.33
71145;BME280;58812;47.698;17.726;2023-04-26T05:36:21;100055.34;;;8.96;61.59
71145;BME280;58812;47.698;17.726;2023-04-26T05:38:47;100062.06;;;8.61;62.44
71145;BME280;58812;47.698;17.726;2023-04-26T05:41:13;100069.06;;;9.10;60.31
71145;BME280;58812;47.698;17.726;2023-04-26T05:43:38;100068.66;;;8.76;60.43
71145;BME280;58812;47.698;17.726;2023-04-26T05:46:04;100079.03;;;9.28;59.71
71145;BME280;58812;47.698;17.726;2023-04-26T05:48:30;100071.59;;;9.12;58.90
71145;BME280;58812;47.698;17.726;2023-04-26T05:50:55;100073.97;;;9.25;59.39
71145;BME280;58812;47.698;17.726;2023-04-26T05:53:20;100077.00;;;9.59;58.49
71145;BME280;58812;47.698;17.726;2023-04-26T05:55:46;100075.06;;;9.88;57.60
71145;BME280;58812;47.698;17.726;2023-04-26T05:58:12;100087.00;;;9.67;57.01
71145;BME280;58812;47.698;17.726;2023-04-26T06:00:37;100088.13;;;9.54;56.99
71145;BME280;58812;47.698;17.726;2023-04-26T06:03:03;100086.78;;;9.12;57.75
71145;BME280;58812;47.698;17.726;2023-04-26T06:05:30;100088.03;;;9.83;56.41
71145;BME280;58812;47.698;17.726;2023-04-26T06:07:55;100103.31;;;9.54;55.46
71145;BME280;58812;47.698;17.726;2023-04-26T06:10:21;100098.69;;;9.36;55.52
71145;BME280;58812;47.698;17.726;2023-04-26T06:12:47;100098.22;;;9.60;55.55
71145;BME280;58812;47.698;17.726;2023-04-26T06:15:12;100096.53;;;9.69;54.43
71145;BME280;58812;47.698;17.726;2023-04-26T06:17:39;100096.00;;;10.03;54.61
71145;BME280;58812;47.698;17.726;2023-04-26T06:20:06;100092.53;;;9.93;53.36
71145;BME280;58812;47.698;17.726;2023-04-26T06:22:32;100099.69;;;9.92;52.72
71145;BME280;58812;47.698;17.726;2023-04-26T06:24:57;100099.88;;;10.18;52.29
71145;BME280;58812;47.698;17.726;2023-04-26T06:27:23;100105.50;;;10.52;51.56
71145;BME280;58812;47.698;17.726;2023-04-26T06:29:48;100100.44;;;9.84;52.46
71145;BME280;58812;47.698;17.726;2023-04-26T06:32:14;100113.78;;;10.22;51.78
71145;BME280;58812;47.698;17.726;2023-04-26T06:34:40;100113.72;;;9.47;52.99
71145;BME280;58812;47.698;17.726;2023-04-26T06:37:06;100109.41;;;10.58;51.56
71145;BME280;58812;47.698;17.726;2023-04-26T06:39:31;100111.94;;;10.59;50.31
71145;BME280;58812;47.698;17.726;2023-04-26T06:41:56;100113.97;;;10.48;50.66
71145;BME280;58812;47.698;17.726;2023-04-26T06:44:22;100120.09;;;11.03;49.65
71145;BME280;58812;47.698;17.726;2023-04-26T06:46:47;100118.59;;;10.73;49.26
71145;BME280;58812;47.698;17.726;2023-04-26T06:49:13;100123.47;;;10.60;49.81
71145;BME280;58812;47.698;17.726;2023-04-26T06:51:39;100121.94;;;10.30;49.29
71145;BME280;58812;47.698;17.726;2023-04-26T06:54:05;100123.03;;;10.64;49.12
71145;BME280;58812;47.698;17.726;2023-04-26T06:56:31;100123.72;;;10.84;48.42
71145;BME280;58812;47.698;17.726;2023-04-26T06:59:00;100125.81;;;11.26;48.14
71145;BME280;58812;47.698;17.726;2023-04-26T07:01:27;100129.81;;;11.22;47.97
71145;BME280;58812;47.698;17.726;2023-04-26T07:03:56;100121.00;;;11.56;46.73
71145;BME280;58812;47.698;17.726;2023-04-26T07:06:23;100123.03;;;11.54;46.69
71145;BME280;58812;47.698;17.726;2023-04-26T07:08:48;100125.97;;;11.07;47.37
71145;BME280;58812;47.698;17.726;2023-04-26T07:11:14;100119.66;;;11.52;47.03
71145;BME280;58812;47.698;17.726;2023-04-26T07:13:39;100131.47;;;12.11;45.29
71145;BME280;58812;47.698;17.726;2023-04-26T07:16:05;100135.22;;;12.26;44.97
71145;BME280;58812;47.698;17.726;2023-04-26T07:18:30;100127.75;;;11.60;45.52
71145;BME280;58812;47.698;17.726;2023-04-26T07:20:56;100130.41;;;12.03;45.16
71145;BME280;58812;47.698;17.726;2023-04-26T07:23:21;100126.44;;;11.64;45.80
71145;BME280;58812;47.698;17.726;2023-04-26T07:25:47;100131.16;;;11.88;44.64
71145;BME280;58812;47.698;17.726;2023-04-26T07:28:12;100142.25;;;11.31;45.13
71145;BME280;58812;47.698;17.726;2023-04-26T07:30:38;100142.84;;;12.05;45.08
71145;BME280;58812;47.698;17.726;2023-04-26T07:33:04;100143.22;;;11.66;44.52
71145;BME280;58812;47.698;17.726;2023-04-26T07:35:30;100149.37;;;12.36;42.87
71145;BME280;58812;47.698;17.726;2023-04-26T07:37:56;100152.87;;;12.02;44.22
71145;BME280;58812;47.698;17.726;2023-04-26T07:40:21;100145.72;;;12.45;43.59
71145;BME280;58812;47.698;17.726;2023-04-26T07:42:48;100159.09;;;11.59;45.13
71145;BME280;58812;47.698;17.726;2023-04-26T07:45:14;100155.50;;;11.50;44.60
71145;BME280;58812;47.698;17.726;2023-04-26T07:47:40;100159.06;;;12.03;42.70
71145;BME280;58812;47.698;17.726;2023-04-26T07:50:05;100161.28;;;12.08;43.33
71145;BME280;58812;47.698;17.726;2023-04-26T07:52:31;100157.47;;;12.10;43.53
71145;BME280;58812;47.698;17.726;2023-04-26T07:54:56;100160.75;;;13.55;41.47
71145;BME280;58812;47.698;17.726;2023-04-26T07:57:22;100153.00;;;13.28;42.18
71145;BME280;58812;47.698;17.726;2023-04-26T07:59:48;100155.13;;;12.49;42.38
71145;BME280;58812;47.698;17.726;2023-04-26T08:02:14;100158.56;;;13.51;42.04
71145;BME280;58812;47.698;17.726;2023-04-26T08:04:47;100166.13;;;13.31;40.76
71145;BME280;58812;47.698;17.726;2023-04-26T08:07:14;100155.56;;;12.71;39.94
71145;BME280;58812;47.698;17.726;2023-04-26T08:09:40;100166.41;;;13.20;39.67
71145;BME280;58812;47.698;17.726;2023-04-26T08:12:06;100150.84;;;12.65;41.45
71145;BME280;58812;47.698;17.726;2023-04-26T08:14:33;100155.72;;;13.36;42.10
71145;BME280;58812;47.698;17.726;2023-04-26T08:16:59;100158.38;;;13.28;41.25
71145;BME280;58812;47.698;17.726;2023-04-26T08:19:26;100162.72;;;14.02;40.60
71145;BME280;58812;47.698;17.726;2023-04-26T08:21:55;100155.44;;;12.97;41.48
71145;BME280;58812;47.698;17.726;2023-04-26T08:24:21;100174.50;;;13.28;40.80
71145;BME280;58812;47.698;17.726;2023-04-26T08:26:46;100162.13;;;12.34;42.00
71145;BME280;58812;47.698;17.726;2023-04-26T08:29:12;100164.75;;;12.60;40.79
71145;BME280;58812;47.698;17.726;2023-04-26T08:31:39;100162.66;;;12.88;40.18
71145;BME280;58812;47.698;17.726;2023-04-26T08:34:04;100154.94;;;12.93;40.25
71145;BME280;58812;47.698;17.726;2023-04-26T08:36:30;100163.91;;;13.26;39.42
71145;BME280;58812;47.698;17.726;2023-04-26T08:38:56;100177.16;;;14.09;38.01
71145;BME280;58812;47.698;17.726;2023-04-26T08:41:22;100167.78;;;13.24;37.83
71145;BME280;58812;47.698;17.726;2023-04-26T08:43:49;100172.97;;;14.07;37.12
71145;BME280;58812;47.698;17.726;2023-04-26T08:46:18;100184.91;;;14.12;36.92
71145;BME280;58812;47.698;17.726;2023-04-26T08:48:46;100163.41;;;13.63;36.97
71145;BME280;58812;47.698;17.726;2023-04-26T08:51:14;100170.66;;;13.22;36.11
71145;BME280;58812;47.698;17.726;2023-04-26T08:53:41;100179.56;;;13.63;34.89
71145;BME280;58812;47.698;17.726;2023-04-26T08:56:09;100178.56;;;13.48;35.66
71145;BME280;58812;47.698;17.726;2023-04-26T08:58:37;100177.06;;;13.78;35.24
71145;BME280;58812;47.698;17.726;2023-04-26T09:01:03;100186.66;;;13.65;35.47
71145;BME280;58812;47.698;17.726;2023-04-26T09:03:29;100173.66;;;13.93;34.86
71145;BME280;58812;47.698;17.726;2023-04-26T09:05:55;100171.66;;;13.95;36.03
71145;BME280;58812;47.698;17.726;2023-04-26T09:08:21;100171.97;;;14.08;35.96
71145;BME280;58812;47.698;17.726;2023-04-26T09:10:46;100194.38;;;14.64;36.16
71145;BME280;58812;47.698;17.726;2023-04-26T09:13:12;100174.50;;;13.85;36.30
71145;BME280;58812;47.698;17.726;2023-04-26T09:15:38;100173.47;;;14.19;36.25
71145;BME280;58812;47.698;17.726;2023-04-26T09:18:18;100181.59;;;13.53;37.62
71145;BME280;58812;47.698;17.726;2023-04-26T09:20:44;100173.34;;;13.39;36.80
71145;BME280;58812;47.698;17.726;2023-04-26T09:23:10;100171.09;;;14.24;36.06
71145;BME280;58812;47.698;17.726;2023-04-26T09:25:36;100172.00;;;13.26;37.05
71145;BME280;58812;47.698;17.726;2023-04-26T09:28:02;100175.44;;;13.02;37.14
71145;BME280;58812;47.698;17.726;2023-04-26T09:30:29;100174.34;;;13.95;36.33
71145;BME280;58812;47.698;17.726;2023-04-26T09:33:00;100170.69;;;14.90;34.87
71145;BME280;58812;47.698;17.726;2023-04-26T09:38:10;100158.44;;;14.32;35.25
71145;BME280;58812;47.698;17.726;2023-04-26T09:40:41;100177.16;;;14.09;35.75
71145;BME280;58812;47.698;17.726;2023-04-26T09:43:09;100170.00;;;13.28;37.61
71145;BME280;58812;47.698;17.726;2023-04-26T09:45:49;100161.00;;;13.03;38.58
71145;BME280;58812;47.698;17.726;2023-04-26T09:48:32;100168.16;;;12.36;38.28
71145;BME280;58812;47.698;17.726;2023-04-26T09:51:08;100170.81;;;12.28;38.67
71145;BME280;58812;47.698;17.726;2023-04-26T09:53:37;100164.69;;;12.94;37.53
71145;BME280;58812;47.698;17.726;2023-04-26T09:56:14;100177.38;;;13.75;36.13
71145;BME280;58812;47.698;17.726;2023-04-26T09:58:54;100168.41;;;14.15;34.31
71145;BME280;58812;47.698;17.726;2023-04-26T10:01:25;100167.94;;;14.12;32.37
71145;BME280;58812;47.698;17.726;2023-04-26T10:03:55;100165.81;;;14.47;32.79
71145;BME280;58812;47.698;17.726;2023-04-26T10:06:22;100159.72;;;14.92;32.63
71145;BME280;58812;47.698;17.726;2023-04-26T10:08:47;100162.78;;;14.50;33.22
71145;BME280;58812;47.698;17.726;2023-04-26T10:11:13;100152.13;;;14.95;32.62
71145;BME280;58812;47.698;17.726;2023-04-26T10:13:39;100166.75;;;13.98;34.34
71145;BME280;58812;47.698;17.726;2023-04-26T10:16:06;100166.41;;;14.09;33.97
71145;BME280;58812;47.698;17.726;2023-04-26T10:18:32;100167.09;;;14.11;35.21
71145;BME280;58812;47.698;17.726;2023-04-26T10:21:06;100163.88;;;13.18;33.66
71145;BME280;58812;47.698;17.726;2023-04-26T10:23:33;100152.63;;;13.96;34.62
71145;BME280;58812;47.698;17.726;2023-04-26T10:25:59;100160.22;;;13.27;35.24
71145;BME280;58812;47.698;17.726;2023-04-26T10:31:05;100163.22;;;12.57;37.61
71145;BME280;58812;47.698;17.726;2023-04-26T10:33:32;100160.09;;;12.28;37.71
71145;BME280;58812;47.698;17.726;2023-04-26T10:38:28;100158.06;;;12.30;39.14
71145;BME280;58812;47.698;17.726;2023-04-26T10:40:53;100148.91;;;12.15;38.67
71145;BME280;58812;47.698;17.726;2023-04-26T10:43:29;100153.38;;;13.41;36.98
71145;BME280;58812;47.698;17.726;2023-04-26T10:45:56;100151.66;;;13.73;35.61
71145;BME280;58812;47.698;17.726;2023-04-26T10:48:30;100152.53;;;14.37;33.20
71145;BME280;58812;47.698;17.726;2023-04-26T10:53:24;100139.53;;;13.85;34.20
71145;BME280;58812;47.698;17.726;2023-04-26T10:55:50;100147.91;;;14.06;32.45
71145;BME280;58812;47.698;17.726;2023-04-26T10:58:25;100136.88;;;13.77;33.83
71145;BME280;58812;47.698;17.726;2023-04-26T11:01:07;100143.50;;;14.13;33.27
71145;BME280;58812;47.698;17.726;2023-04-26T11:03:33;100138.63;;;14.95;33.10
71145;BME280;58812;47.698;17.726;2023-04-26T11:05:59;100144.59;;;13.88;34.56
71145;BME280;58812;47.698;17.726;2023-04-26T11:08:26;100154.12;;;14.07;33.55
71145;BME280;58812;47.698;17.726;2023-04-26T11:13:30;100147.66;;;14.32;34.46
71145;BME280;58812;47.698;17.726;2023-04-26T11:16:03;100145.59;;;14.90;33.78
71145;BME280;58812;47.698;17.726;2023-04-26T11:18:30;100152.78;;;15.20;31.59
71145;BME280;58812;47.698;17.726;2023-04-26T11:20:57;100154.84;;;14.56;32.83
71145;BME280;58812;47.698;17.726;2023-04-26T11:23:23;100142.41;;;14.39;32.64
71145;BME280;58812;47.698;17.726;2023-04-26T11:25:49;100147.19;;;14.99;34.23
71145;BME280;58812;47.698;17.726;2023-04-26T11:28:15;100148.16;;;14.36;34.44
71145;BME280;58812;47.698;17.726;2023-04-26T11:30:41;100150.56;;;14.14;33.94
71145;BME280;58812;47.698;17.726;2023-04-26T11:33:15;100134.38;;;13.43;34.13
71145;BME280;58812;47.698;17.726;2023-04-26T11:35:42;100148.66;;;13.35;34.58
71145;BME280;58812;47.698;17.726;2023-04-26T11:38:08;100167.47;;;13.76;33.69
71145;BME280;58812;47.698;17.726;2023-04-26T11:40:33;100165.47;;;14.41;32.10
71145;BME280;58812;47.698;17.726;2023-04-26T11:43:05;100152.28;;;13.99;31.44
71145;BME280;58812;47.698;17.726;2023-04-26T11:45:32;100154.94;;;14.24;31.20
71145;BME280;58812;47.698;17.726;2023-04-26T11:47:59;100148.56;;;15.87;31.47
71145;BME280;58812;47.698;17.726;2023-04-26T11:50:25;100151.81;;;15.59;30.79
71145;BME280;58812;47.698;17.726;2023-04-26T11:52:55;100159.72;;;14.92;31.77
71145;BME280;58812;47.698;17.726;2023-04-26T11:55:31;100160.25;;;14.40;32.10
71145;BME280;58812;47.698;17.726;2023-04-26T11:57:59;100147.25;;;14.91;31.95
71145;BME280;58812;47.698;17.726;2023-04-26T12:00:25;100159.75;;;15.61;32.18
71145;BME280;58812;47.698;17.726;2023-04-26T12:02:50;100146.41;;;15.82;30.66
71145;BME280;58812;47.698;17.726;2023-04-26T12:05:52;100153.16;;;15.63;30.18
71145;BME280;58812;47.698;17.726;2023-04-26T12:08:23;100152.41;;;15.23;29.70
71145;BME280;58812;47.698;17.726;2023-04-26T12:10:48;100148.59;;;15.41;30.19
71145;BME280;58812;47.698;17.726;2023-04-26T12:13:14;100154.34;;;15.61;30.13
71145;BME280;58812;47.698;17.726;2023-04-26T12:15:39;100152.87;;;15.96;31.20
71145;BME280;58812;47.698;17.726;2023-04-26T12:18:07;100160.91;;;15.58;32.52
71145;BME280;58812;47.698;17.726;2023-04-26T12:20:38;100155.19;;;14.45;33.17
71145;BME280;58812;47.698;17.726;2023-04-26T12:23:13;100147.97;;;13.57;32.79
71145;BME280;58812;47.698;17.726;2023-04-26T12:25:40;100150.31;;;13.28;32.80
71145;BME280;58812;47.698;17.726;2023-04-26T12:28:11;100174.88;;;13.41;32.90
71145;BME280;58812;47.698;17.726;2023-04-26T12:30:38;100159.75;;;12.73;33.20
71145;BME280;58812;47.698;17.726;2023-04-26T12:33:04;100151.88;;;12.80;33.57
71145;BME280;58812;47.698;17.726;2023-04-26T12:35:31;100162.59;;;13.30;34.60
71145;BME280;58812;47.698;17.726;2023-04-26T12:37:57;100151.34;;;13.43;34.35
71145;BME280;58812;47.698;17.726;2023-04-26T12:40:26;100170.81;;;13.94;34.24
71145;BME280;58812;47.698;17.726;2023-04-26T12:42:52;100168.78;;;13.96;34.29
71145;BME280;58812;47.698;17.726;2023-04-26T12:45:21;100174.72;;;14.39;33.49
71145;BME280;58812;47.698;17.726;2023-04-26T12:47:47;100158.94;;;14.28;33.16
71145;BME280;58812;47.698;17.726;2023-04-26T12:50:13;100161.44;;;14.37;31.99
71145;BME280;58812;47.698;17.726;2023-04-26T12:52:40;100155.28;;;14.99;31.90
71145;BME280;58812;47.698;17.726;2023-04-26T12:55:09;100166.88;;;15.31;31.98
71145;BME280;58812;47.698;17.726;2023-04-26T12:57:36;100149.84;;;15.07;30.88